sensor_id;sensor_type;location;lat;lon;timestamp;pressure;altitude;pressure_sealevel;temperature;humidity
4149;BME280;2088;51.032;7.082;2022-07-21T00:01:06;48499.25;;;-142.28;100.00
4149;BME280;2088;51.032;7.082;2022-07-21T00:03:35;48479.88;;;-142.28;100.00
4149;BME280;2088;51.032;7.082;2022-07-21T00:06:02;48474.06;;;-142.28;100.00
4149;BME280;2088;51.032;7.082;2022-07-21T00:08:29;48454.72;;;-142.28;100.00
4149;BME280;2088;51.032;7.082;2022-07-21T00:10:56;48491.50;;;-142.28;100.00
4149;BME280;2088;51.032;7.082;2022-07-21T00:13:22;48489.56;;;-142.28;100.00
4149;BME280;2088;51.032;7.082;2022-07-21T00:15:49;48506.97;;;-142.28;100.00
4149;BME280;2088;51.032;7.082;2022-07-21T00:18:17;48506.97;;;-142.28;100.00
4149;BME280;2088;51.032;7.082;2022-07-21T00:20:45;48503.09;;;-142.28;100.00
4149;BME280;2088;51.032;7.082;2022-07-21T00:23:12;48541.81;;;-142.28;100.00
4149;BME280;2088;51.032;7.082;2022-07-21T00:25:38;48506.97;;;-142.28;100.00
4149;BME280;2088;51.032;7.082;2022-07-21T00:28:05;48501.16;;;-142.28;100.00
4149;BME280;2088;51.032;7.082;2022-07-21T00:30:32;48497.31;;;-142.28;100.00
4149;BME280;2088;51.032;7.082;2022-07-21T00:32:59;48501.16;;;-142.28;100.00
4149;BME280;2088;51.032;7.082;2022-07-21T00:35:26;48524.41;;;-142.28;100.00
4149;BME280;2088;51.032;7.082;2022-07-21T00:37:54;48530.22;;;-142.28;100.00
4149;BME280;2088;51.032;7.082;2022-07-21T00:40:20;48572.78;;;-142.28;100.00
4149;BME280;2088;51.032;7.082;2022-07-21T00:42:47;48601.81;;;-142.28;100.00
4149;BME280;2088;51.032;7.082;2022-07-21T00:45:13;48594.06;;;-142.28;100.00
4149;BME280;2088;51.032;7.082;2022-07-21T00:47:40;48644.41;;;-142.28;100.00
4149;BME280;2088;51.032;7.082;2022-07-21T00:50:09;48686.97;;;-142.28;100.00
4149;BME280;2088;51.032;7.082;2022-07-21T00:52:36;48700.53;;;-142.28;100.00
4149;BME280;2088;51.032;7.082;2022-07-21T00:55:05;48754.72;;;-142.28;100.00
4149;BME280;2088;51.032;7.082;2022-07-21T00:57:32;48801.19;;;-142.28;100.00
4149;BME280;2088;51.032;7.082;2022-07-21T00:59:58;48845.69;;;-142.28;100.00
4149;BME280;2088;51.032;7.082;2022-07-21T01:02:25;48847.63;;;-142.28;100.00
4149;BME280;2088;51.032;7.082;2022-07-21T01:04:53;48878.59;;;-142.28;100.00
4149;BME280;2088;51.032;7.082;2022-07-21T01:07:20;48915.38;;;-142.28;100.00
4149;BME280;2088;51.032;7.082;2022-07-21T01:09:46;48952.16;;;-142.28;100.00
4149;BME280;2088;51.032;7.082;2022-07-21T01:12:15;48994.75;;;-142.28;100.00
4149;BME280;2088;51.032;7.082;2022-07-21T01:14:42;48998.63;;;-142.28;100.00
4149;BME280;2088;51.032;7.082;2022-07-21T01:17:08;49025.72;;;-142.28;100.00
4149;BME280;2088;51.032;7.082;2022-07-21T01:19:35;49062.50;;;-142.28;100.00
4149;BME280;2088;51.032;7.082;2022-07-21T01:22:03;49089.59;;;-142.28;100.00
4149;BME280;2088;51.032;7.082;2022-07-21T01:24:29;49114.75;;;-142.28;100.00
4149;BME280;2088;51.032;7.082;2022-07-21T01:26:56;49130.25;;;-142.28;100.00
4149;BME280;2088;51.032;7.082;2022-07-21T01:29:24;49139.91;;;-142.28;100.00
4149;BME280;2088;51.032;7.082;2022-07-21T01:31:51;49168.97;;;-142.28;100.00
4149;BME280;2088;51.032;7.082;2022-07-21T01:34:17;49190.25;;;-142.28;100.00
4149;BME280;2088;51.032;7.082;2022-07-21T01:36:44;49219.28;;;-142.28;100.00
4149;BME280;2088;51.032;7.082;2022-07-21T01:39:12;49205.75;;;-142.28;100.00
4149;BME280;2088;51.032;7.082;2022-07-21T01:41:57;49199.94;;;-142.28;100.00
4149;BME280;2088;51.032;7.082;2022-07-21T01:44:23;49178.63;;;-142.28;100.00
4149;BME280;2088;51.032;7.082;2022-07-21T01:46:51;49244.44;;;-142.28;100.00
4149;BME280;2088;51.032;7.082;2022-07-21T01:49:19;49279.31;;;-142.28;100.00
4149;BME280;2088;51.032;7.082;2022-07-21T01:51:46;49290.91;;;-142.28;100.00
4149;BME280;2088;51.032;7.082;2022-07-21T01:54:14;49318.03;;;-142.28;100.00
4149;BME280;2088;51.032;7.082;2022-07-21T01:56:40;49362.53;;;-142.28;100.00
4149;BME280;2088;51.032;7.082;2022-07-21T01:59:07;49349.00;;;-142.28;100.00
4149;BME280;2088;51.032;7.082;2022-07-21T02:01:34;49379.97;;;-142.28;100.00
4149;BME280;2088;51.032;7.082;2022-07-21T02:04:02;49378.03;;;-142.28;100.00
4149;BME280;2088;51.032;7.082;2022-07-21T02:06:30;49409.00;;;-142.28;100.00
4149;BME280;2088;51.032;7.082;2022-07-21T02:08:56;49418.69;;;-142.28;100.00
4149;BME280;2088;51.032;7.082;2022-07-21T02:11:24;49461.28;;;-142.28;100.00
4149;BME280;2088;51.032;7.082;2022-07-21T02:13:51;49536.78;;;-142.28;100.00
4149;BME280;2088;51.032;7.082;2022-07-21T02:16:17;49627.78;;;-142.28;100.00
4149;BME280;2088;51.032;7.082;2022-07-21T02:18:44;49678.09;;;-142.28;100.00
4149;BME280;2088;51.032;7.082;2022-07-21T02:21:11;49712.97;;;-142.28;100.00
4149;BME280;2088;51.032;7.082;2022-07-21T02:23:38;49751.69;;;-142.28;100.00
4149;BME280;2088;51.032;7.082;2022-07-21T02:26:04;49788.47;;;-142.28;100.00
4149;BME280;2088;51.032;7.082;2022-07-21T02:28:32;49821.38;;;-142.28;100.00
4149;BME280;2088;51.032;7.082;2022-07-21T02:30:59;49891.09;;;-142.28;100.00
4149;BME280;2088;51.032;7.082;2022-07-21T02:33:25;49916.25;;;-142.28;100.00
4149;BME280;2088;51.032;7.082;2022-07-21T02:35:52;49906.56;;;-142.28;100.00
4149;BME280;2088;51.032;7.082;2022-07-21T02:38:18;49982.09;;;-142.28;100.00
4149;BME280;2088;51.032;7.082;2022-07-21T02:40:45;50011.13;;;-142.28;100.00
4149;BME280;2088;51.032;7.082;2022-07-21T02:43:11;50032.44;;;-142.28;100.00
4149;BME280;2088;51.032;7.082;2022-07-21T02:45:39;50082.78;;;-142.28;100.00
4149;BME280;2088;51.032;7.082;2022-07-21T02:48:08;50088.59;;;-142.28;100.00
4149;BME280;2088;51.032;7.082;2022-07-21T02:50:38;50123.44;;;-142.28;100.00
4149;BME280;2088;51.032;7.082;2022-07-21T02:53:06;50140.88;;;-142.28;100.00
4149;BME280;2088;51.032;7.082;2022-07-21T02:55:33;50148.63;;;-142.28;100.00
4149;BME280;2088;51.032;7.082;2022-07-21T02:58:08;50173.78;;;-142.28;100.00
4149;BME280;2088;51.032;7.082;2022-07-21T03:00:36;50210.56;;;-142.28;100.00
4149;BME280;2088;51.032;7.082;2022-07-21T03:03:05;50255.13;;;-142.28;100.00
4149;BME280;2088;51.032;7.082;2022-07-21T03:05:32;50253.19;;;-142.28;100.00
4149;BME280;2088;51.032;7.082;2022-07-21T03:07:59;50301.59;;;-142.28;100.00
4149;BME280;2088;51.032;7.082;2022-07-21T03:10:25;50348.06;;;-142.28;100.00
4149;BME280;2088;51.032;7.082;2022-07-21T03:12:52;50375.19;;;-142.28;100.00
4149;BME280;2088;51.032;7.082;2022-07-21T03:15:19;50477.81;;;-142.28;100.00
4149;BME280;2088;51.032;7.082;2022-07-21T03:17:45;50477.81;;;-142.28;100.00
4149;BME280;2088;51.032;7.082;2022-07-21T03:20:14;50485.56;;;-142.28;100.00
4149;BME280;2088;51.032;7.082;2022-07-21T03:22:40;50555.28;;;-142.28;100.00
4149;BME280;2088;51.032;7.082;2022-07-21T03:25:07;50665.66;;;-142.28;100.00
4149;BME280;2088;51.032;7.082;2022-07-21T03:27:34;50723.75;;;-142.28;100.00
4149;BME280;2088;51.032;7.082;2022-07-21T03:30:02;50756.69;;;-142.28;100.00
4149;BME280;2088;51.032;7.082;2022-07-21T03:32:29;50830.28;;;-142.28;100.00
4149;BME280;2088;51.032;7.082;2022-07-21T03:34:56;50847.72;;;-142.28;100.00
4149;BME280;2088;51.032;7.082;2022-07-21T03:37:24;50965.84;;;-142.28;100.00
4149;BME280;2088;51.032;7.082;2022-07-21T03:39:50;51018.16;;;-142.28;100.00
4149;BME280;2088;51.032;7.082;2022-07-21T03:42:17;51074.31;;;-142.28;100.00
4149;BME280;2088;51.032;7.082;2022-07-21T03:44:43;51147.91;;;-142.28;100.00
4149;BME280;2088;51.032;7.082;2022-07-21T03:47:10;51190.53;;;-142.28;100.00
4149;BME280;2088;51.032;7.082;2022-07-21T03:49:36;51204.09;;;-142.28;100.00
4149;BME280;2088;51.032;7.082;2022-07-21T03:52:04;51312.56;;;-142.28;100.00
4149;BME280;2088;51.032;7.082;2022-07-21T03:54:32;51374.56;;;-142.28;100.00
4149;BME280;2088;51.032;7.082;2022-07-21T03:56:58;51432.66;;;-142.28;100.00
4149;BME280;2088;51.032;7.082;2022-07-21T03:59:24;51494.66;;;-142.28;100.00
4149;BME280;2088;51.032;7.082;2022-07-21T04:01:51;51568.25;;;-142.28;100.00
4149;BME280;2088;51.032;7.082;2022-07-21T04:04:17;51521.78;;;-142.28;100.00
4149;BME280;2088;51.032;7.082;2022-07-21T04:06:44;51556.63;;;-142.28;100.00
4149;BME280;2088;51.032;7.082;2022-07-21T04:09:11;51601.19;;;-142.28;100.00
4149;BME280;2088;51.032;7.082;2022-07-21T04:11:39;51676.75;;;-142.28;100.00
4149;BME280;2088;51.032;7.082;2022-07-21T04:14:05;51820.09;;;-142.28;100.00
4149;BME280;2088;51.032;7.082;2022-07-21T04:16:32;51889.84;;;-142.28;100.00
4149;BME280;2088;51.032;7.082;2022-07-21T04:18:58;52023.53;;;-142.28;100.00
4149;BME280;2088;51.032;7.082;2022-07-21T04:21:25;52178.53;;;-142.28;100.00
4149;BME280;2088;51.032;7.082;2022-07-21T04:23:51;52230.84;;;-142.28;100.00
4149;BME280;2088;51.032;7.082;2022-07-21T04:26:18;52194.03;;;-142.28;100.00
4149;BME280;2088;51.032;7.082;2022-07-21T04:28:46;52199.84;;;-142.28;100.00
4149;BME280;2088;51.032;7.082;2022-07-21T04:31:12;52178.53;;;-142.28;100.00
4149;BME280;2088;51.032;7.082;2022-07-21T04:33:39;52106.84;;;-142.28;100.00
4149;BME280;2088;51.032;7.082;2022-07-21T04:36:06;52064.22;;;-142.28;100.00
4149;BME280;2088;51.032;7.082;2022-07-21T04:38:32;52064.22;;;-142.28;100.00
4149;BME280;2088;51.032;7.082;2022-07-21T04:40:59;52013.84;;;-142.28;100.00
4149;BME280;2088;51.032;7.082;2022-07-21T04:43:25;51955.72;;;-142.28;100.00
4149;BME280;2088;51.032;7.082;2022-07-21T04:45:53;51920.84;;;-142.28;100.00
4149;BME280;2088;51.032;7.082;2022-07-21T04:48:20;51915.03;;;-142.28;100.00
4149;BME280;2088;51.032;7.082;2022-07-21T04:50:46;51794.91;;;-142.28;100.00
4149;BME280;2088;51.032;7.082;2022-07-21T04:53:13;51723.25;;;-142.28;100.00
4149;BME280;2088;51.032;7.082;2022-07-21T04:55:39;51696.13;;;-142.28;100.00
4149;BME280;2088;51.032;7.082;2022-07-21T04:58:06;51610.88;;;-142.28;100.00
4149;BME280;2088;51.032;7.082;2022-07-21T05:00:32;51490.78;;;-142.28;100.00
4149;BME280;2088;51.032;7.082;2022-07-21T05:03:00;51326.13;;;-142.28;100.00
4149;BME280;2088;51.032;7.082;2022-07-21T05:05:26;51271.88;;;-142.28;100.00
4149;BME280;2088;51.032;7.082;2022-07-21T05:07:53;51390.03;;;-142.28;100.00
4149;BME280;2088;51.032;7.082;2022-07-21T05:10:19;51452.03;;;-142.28;100.00
4149;BME280;2088;51.032;7.082;2022-07-21T05:12:46;51490.78;;;-142.28;100.00
4149;BME280;2088;51.032;7.082;2022-07-21T05:15:13;51380.38;;;-142.28;100.00
4149;BME280;2088;51.032;7.082;2022-07-21T05:17:40;51326.13;;;-142.28;100.00
4149;BME280;2088;51.032;7.082;2022-07-21T05:20:09;51304.81;;;-142.28;100.00
4149;BME280;2088;51.032;7.082;2022-07-21T05:22:36;51204.09;;;-142.28;100.00
4149;BME280;2088;51.032;7.082;2022-07-21T05:25:03;51198.28;;;-142.28;100.00
4149;BME280;2088;51.032;7.082;2022-07-21T05:27:30;51136.31;;;-142.28;100.00
4149;BME280;2088;51.032;7.082;2022-07-21T05:29:57;51045.25;;;-142.28;100.00
4149;BME280;2088;51.032;7.082;2022-07-21T05:32:24;50998.78;;;-142.28;100.00
4149;BME280;2088;51.032;7.082;2022-07-21T05:34:50;50913.56;;;-142.28;100.00
4149;BME280;2088;51.032;7.082;2022-07-21T05:37:18;50870.94;;;-142.28;100.00
4149;BME280;2088;51.032;7.082;2022-07-21T05:39:44;50832.22;;;-142.28;100.00
4149;BME280;2088;51.032;7.082;2022-07-21T05:42:11;50756.69;;;-142.28;100.00
4149;BME280;2088;51.032;7.082;2022-07-21T05:44:37;50733.44;;;-142.28;100.00
4149;BME280;2088;51.032;7.082;2022-07-21T05:47:05;50770.25;;;-142.28;100.00
4149;BME280;2088;51.032;7.082;2022-07-21T05:49:31;50783.81;;;-142.28;100.00
4149;BME280;2088;51.032;7.082;2022-07-21T05:51:58;50776.06;;;-142.28;100.00
4149;BME280;2088;51.032;7.082;2022-07-21T05:54:26;50805.09;;;-142.28;100.00
4149;BME280;2088;51.032;7.082;2022-07-21T05:56:52;50814.78;;;-142.28;100.00
4149;BME280;2088;51.032;7.082;2022-07-21T05:59:19;50855.47;;;-142.28;100.00
4149;BME280;2088;51.032;7.082;2022-07-21T06:01:45;50849.66;;;-142.28;100.00
4149;BME280;2088;51.032;7.082;2022-07-21T06:04:12;50836.09;;;-142.28;100.00
4149;BME280;2088;51.032;7.082;2022-07-21T06:06:38;50870.94;;;-142.28;100.00
4149;BME280;2088;51.032;7.082;2022-07-21T06:09:05;50915.50;;;-142.28;100.00
4149;BME280;2088;51.032;7.082;2022-07-21T06:11:33;50919.38;;;-142.28;100.00
4149;BME280;2088;51.032;7.082;2022-07-21T06:13:59;50907.75;;;-142.28;100.00
4149;BME280;2088;51.032;7.082;2022-07-21T06:16:25;50898.06;;;-142.28;100.00
4149;BME280;2088;51.032;7.082;2022-07-21T06:18:52;50956.16;;;-142.28;100.00
4149;BME280;2088;51.032;7.082;2022-07-21T06:21:19;51008.47;;;-142.28;100.00
4149;BME280;2088;51.032;7.082;2022-07-21T06:23:45;50938.75;;;-142.28;100.00
4149;BME280;2088;51.032;7.082;2022-07-21T06:26:11;50954.22;;;-142.28;100.00
4149;BME280;2088;51.032;7.082;2022-07-21T06:28:39;50940.69;;;-142.28;100.00
4149;BME280;2088;51.032;7.082;2022-07-21T06:31:06;50919.38;;;-142.28;100.00
4149;BME280;2088;51.032;7.082;2022-07-21T06:33:33;50896.13;;;-142.28;100.00
4149;BME280;2088;51.032;7.082;2022-07-21T06:35:59;50838.03;;;-142.28;100.00
4149;BME280;2088;51.032;7.082;2022-07-21T06:38:26;50801.22;;;-142.28;100.00
4149;BME280;2088;51.032;7.082;2022-07-21T06:40:52;50766.38;;;-142.28;100.00
4149;BME280;2088;51.032;7.082;2022-07-21T06:43:19;50812.84;;;-142.28;100.00
4149;BME280;2088;51.032;7.082;2022-07-21T06:45:47;50859.34;;;-142.28;100.00
4149;BME280;2088;51.032;7.082;2022-07-21T06:48:14;50843.84;;;-142.28;100.00
4149;BME280;2088;51.032;7.082;2022-07-21T06:50:40;50818.66;;;-142.28;100.00
4149;BME280;2088;51.032;7.082;2022-07-21T06:53:07;50793.47;;;-142.28;100.00
4149;BME280;2088;51.032;7.082;2022-07-21T06:55:35;50708.25;;;-142.28;100.00
4149;BME280;2088;51.032;7.082;2022-07-21T06:58:20;50603.69;;;-142.28;100.00
4149;BME280;2088;51.032;7.082;2022-07-21T07:00:48;50570.75;;;-142.28;100.00
4149;BME280;2088;51.032;7.082;2022-07-21T07:03:16;50537.84;;;-142.28;100.00
4149;BME280;2088;51.032;7.082;2022-07-21T07:05:44;50510.72;;;-142.28;100.00
4149;BME280;2088;51.032;7.082;2022-07-21T07:08:11;50425.53;;;-142.28;100.00
4149;BME280;2088;51.032;7.082;2022-07-21T07:10:38;50373.25;;;-142.28;100.00
4149;BME280;2088;51.032;7.082;2022-07-21T07:13:05;50328.69;;;-142.28;100.00
4149;BME280;2088;51.032;7.082;2022-07-21T07:15:31;50297.72;;;-142.28;100.00
4149;BME280;2088;51.032;7.082;2022-07-21T07:17:59;50278.34;;;-142.28;100.00
4149;BME280;2088;51.032;7.082;2022-07-21T07:20:26;50173.78;;;-142.28;100.00
4149;BME280;2088;51.032;7.082;2022-07-21T07:22:52;50131.19;;;-142.28;100.00
4149;BME280;2088;51.032;7.082;2022-07-21T07:25:19;50123.44;;;-142.28;100.00
4149;BME280;2088;51.032;7.082;2022-07-21T07:27:46;50080.84;;;-142.28;100.00
4149;BME280;2088;51.032;7.082;2022-07-21T07:30:14;50042.13;;;-142.28;100.00
4149;BME280;2088;51.032;7.082;2022-07-21T07:32:41;50067.28;;;-142.28;100.00
4149;BME280;2088;51.032;7.082;2022-07-21T07:35:10;50047.94;;;-142.28;100.00
4149;BME280;2088;51.032;7.082;2022-07-21T07:37:38;50049.88;;;-142.28;100.00
4149;BME280;2088;51.032;7.082;2022-07-21T07:40:08;50038.25;;;-142.28;100.00
4149;BME280;2088;51.032;7.082;2022-07-21T07:42:35;49999.50;;;-142.28;100.00
4149;BME280;2088;51.032;7.082;2022-07-21T07:45:03;49976.28;;;-142.28;100.00
4149;BME280;2088;51.032;7.082;2022-07-21T07:47:30;49987.91;;;-142.28;100.00
4149;BME280;2088;51.032;7.082;2022-07-21T07:49:57;50003.38;;;-142.28;100.00
4149;BME280;2088;51.032;7.082;2022-07-21T07:52:26;49995.66;;;-142.28;100.00
4149;BME280;2088;51.032;7.082;2022-07-21T07:54:53;49953.03;;;-142.28;100.00
4149;BME280;2088;51.032;7.082;2022-07-21T07:57:20;49962.72;;;-142.28;100.00
4149;BME280;2088;51.032;7.082;2022-07-21T07:59:46;49976.28;;;-142.28;100.00
4149;BME280;2088;51.032;7.082;2022-07-21T08:02:13;49962.72;;;-142.28;100.00
4149;BME280;2088;51.032;7.082;2022-07-21T08:04:39;49904.63;;;-142.28;100.00
4149;BME280;2088;51.032;7.082;2022-07-21T08:07:07;49871.72;;;-142.28;99.90
4149;BME280;2088;51.032;7.082;2022-07-21T08:09:35;49910.44;;;-142.28;100.00
4149;BME280;2088;51.032;7.082;2022-07-21T08:12:02;49898.84;;;-142.28;99.21
4149;BME280;2088;51.032;7.082;2022-07-21T08:14:28;49893.03;;;-142.28;99.41
4149;BME280;2088;51.032;7.082;2022-07-21T08:16:55;49846.56;;;-142.28;98.11
4149;BME280;2088;51.032;7.082;2022-07-21T08:19:23;49840.75;;;-142.28;97.56
4149;BME280;2088;51.032;7.082;2022-07-21T08:21:50;49778.78;;;-142.28;97.21
4149;BME280;2088;51.032;7.082;2022-07-21T08:24:17;49774.91;;;-142.28;96.56
4149;BME280;2088;51.032;7.082;2022-07-21T08:26:44;49763.31;;;-142.28;97.67
4149;BME280;2088;51.032;7.082;2022-07-21T08:29:12;49778.78;;;-142.28;95.71
4149;BME280;2088;51.032;7.082;2022-07-21T08:31:38;49734.25;;;-142.28;94.37
4149;BME280;2088;51.032;7.082;2022-07-21T08:34:04;49689.72;;;-142.28;92.95
4149;BME280;2088;51.032;7.082;2022-07-21T08:36:31;49707.16;;;-142.28;94.10
4149;BME280;2088;51.032;7.082;2022-07-21T08:38:57;49651.00;;;-142.28;93.79
4149;BME280;2088;51.032;7.082;2022-07-21T08:41:24;49660.69;;;-142.28;94.27
4149;BME280;2088;51.032;7.082;2022-07-21T08:43:53;49645.19;;;-142.28;94.82
4149;BME280;2088;51.032;7.082;2022-07-21T08:46:21;49651.00;;;-142.28;94.60
4149;BME280;2088;51.032;7.082;2022-07-21T08:48:48;49652.94;;;-142.28;94.55
4149;BME280;2088;51.032;7.082;2022-07-21T08:51:15;49631.66;;;-142.28;91.49
4149;BME280;2088;51.032;7.082;2022-07-21T08:53:43;49592.94;;;-142.28;90.84
4149;BME280;2088;51.032;7.082;2022-07-21T08:56:10;49594.84;;;-142.28;92.43
4149;BME280;2088;51.032;7.082;2022-07-21T08:58:36;49573.56;;;-142.28;90.63
4149;BME280;2088;51.032;7.082;2022-07-21T09:01:04;49571.63;;;-142.28;91.12
4149;BME280;2088;51.032;7.082;2022-07-21T09:03:31;49527.09;;;-142.28;89.63
4149;BME280;2088;51.032;7.082;2022-07-21T09:06:02;49540.66;;;-142.28;88.50
4149;BME280;2088;51.032;7.082;2022-07-21T09:08:30;49463.22;;;-142.28;84.50
4149;BME280;2088;51.032;7.082;2022-07-21T09:11:08;49482.56;;;-142.28;87.66
4149;BME280;2088;51.032;7.082;2022-07-21T09:13:34;49457.41;;;-142.28;86.50
4149;BME280;2088;51.032;7.082;2022-07-21T09:16:01;49461.28;;;-142.28;87.15
4149;BME280;2088;51.032;7.082;2022-07-21T09:18:29;49461.28;;;-142.28;87.49
4149;BME280;2088;51.032;7.082;2022-07-21T09:20:56;49409.00;;;-142.28;85.08
4149;BME280;2088;51.032;7.082;2022-07-21T09:23:23;49376.09;;;-142.28;83.87
4149;BME280;2088;51.032;7.082;2022-07-21T09:25:52;49333.50;;;-142.28;83.38
4149;BME280;2088;51.032;7.082;2022-07-21T09:28:20;49335.44;;;-142.28;83.79
4149;BME280;2088;51.032;7.082;2022-07-21T09:30:53;49341.25;;;-142.28;82.36
4149;BME280;2088;51.032;7.082;2022-07-21T09:33:22;49403.19;;;-142.28;81.53
4149;BME280;2088;51.032;7.082;2022-07-21T09:35:59;49232.84;;;-142.28;75.50
4149;BME280;2088;51.032;7.082;2022-07-21T09:38:28;49120.56;;;-142.28;72.19
4149;BME280;2088;51.032;7.082;2022-07-21T09:40:55;49062.50;;;-142.28;73.89
4149;BME280;2088;51.032;7.082;2022-07-21T09:43:34;49105.06;;;-142.28;79.32
4149;BME280;2088;51.032;7.082;2022-07-21T09:46:08;49139.91;;;-142.28;81.79
4149;BME280;2088;51.032;7.082;2022-07-21T09:48:37;49012.16;;;-142.28;75.57
4149;BME280;2088;51.032;7.082;2022-07-21T09:51:22;49031.53;;;-142.28;78.66
4149;BME280;2088;51.032;7.082;2022-07-21T09:53:54;49012.16;;;-142.28;76.35
4149;BME280;2088;51.032;7.082;2022-07-21T09:56:22;48981.19;;;-142.28;73.43
4149;BME280;2088;51.032;7.082;2022-07-21T09:58:50;48983.13;;;-142.28;70.34
4149;BME280;2088;51.032;7.082;2022-07-21T10:01:17;48957.97;;;-142.28;68.73
4149;BME280;2088;51.032;7.082;2022-07-21T10:03:45;48872.78;;;-142.28;66.37
4149;BME280;2088;51.032;7.082;2022-07-21T10:06:14;48876.66;;;-142.28;66.87
4149;BME280;2088;51.032;7.082;2022-07-21T10:08:43;48868.91;;;-142.28;66.49
4149;BME280;2088;51.032;7.082;2022-07-21T10:11:10;48865.06;;;-142.28;67.19
4149;BME280;2088;51.032;7.082;2022-07-21T10:13:37;48841.81;;;-142.28;65.57
4149;BME280;2088;51.032;7.082;2022-07-21T10:16:04;48845.69;;;-142.28;67.27
4149;BME280;2088;51.032;7.082;2022-07-21T10:18:35;48861.19;;;-142.28;67.08
4149;BME280;2088;51.032;7.082;2022-07-21T10:21:08;48822.47;;;-142.28;65.93
4149;BME280;2088;51.032;7.082;2022-07-21T10:23:40;48795.38;;;-142.28;65.40
4149;BME280;2088;51.032;7.082;2022-07-21T10:26:10;48801.19;;;-142.28;65.61
4149;BME280;2088;51.032;7.082;2022-07-21T10:28:37;48781.81;;;-142.28;65.22
4149;BME280;2088;51.032;7.082;2022-07-21T10:31:15;48810.84;;;-142.28;64.25
4149;BME280;2088;51.032;7.082;2022-07-21T10:33:54;48762.47;;;-142.28;64.01
4149;BME280;2088;51.032;7.082;2022-07-21T10:36:43;48812.78;;;-142.28;63.72
4149;BME280;2088;51.032;7.082;2022-07-21T10:39:23;48810.84;;;-142.28;65.53
4149;BME280;2088;51.032;7.082;2022-07-21T10:41:53;48824.41;;;-142.28;65.53
4149;BME280;2088;51.032;7.082;2022-07-21T10:44:38;48789.56;;;-142.28;64.48
4149;BME280;2088;51.032;7.082;2022-07-21T10:47:07;48737.31;;;-142.28;65.60
4149;BME280;2088;51.032;7.082;2022-07-21T10:49:51;48789.56;;;-142.28;67.03
4149;BME280;2088;51.032;7.082;2022-07-21T10:52:59;48752.78;;;-142.28;68.05
4149;BME280;2088;51.032;7.082;2022-07-21T10:55:28;48880.53;;;-142.28;68.60
4149;BME280;2088;51.032;7.082;2022-07-21T10:58:16;48768.28;;;-142.28;68.16
4149;BME280;2088;51.032;7.082;2022-07-21T11:00:45;48801.19;;;-142.28;69.81
4149;BME280;2088;51.032;7.082;2022-07-21T11:03:21;48791.50;;;-142.28;68.74
4149;BME280;2088;51.032;7.082;2022-07-21T11:06:14;48748.91;;;-142.28;70.44
4149;BME280;2088;51.032;7.082;2022-07-21T11:08:42;48791.50;;;-142.28;71.24
4149;BME280;2088;51.032;7.082;2022-07-21T11:11:10;48795.38;;;-142.28;73.22
4149;BME280;2088;51.032;7.082;2022-07-21T11:14:01;48834.09;;;-142.28;73.25
4149;BME280;2088;51.032;7.082;2022-07-21T11:19:36;48863.13;;;-142.28;77.13
4149;BME280;2088;51.032;7.082;2022-07-21T11:22:05;48872.78;;;-142.28;80.93
4149;BME280;2088;51.032;7.082;2022-07-21T11:24:33;48905.69;;;-142.28;83.82
4149;BME280;2088;51.032;7.082;2022-07-21T11:27:02;48930.88;;;-142.28;85.76
4149;BME280;2088;51.032;7.082;2022-07-21T11:29:31;48977.31;;;-142.28;88.87
4149;BME280;2088;51.032;7.082;2022-07-21T11:31:58;48971.50;;;-142.28;92.42
4149;BME280;2088;51.032;7.082;2022-07-21T11:34:37;49012.16;;;-142.28;95.80
4149;BME280;2088;51.032;7.082;2022-07-21T11:37:03;49048.94;;;-142.28;99.15
4149;BME280;2088;51.032;7.082;2022-07-21T11:39:30;49085.72;;;-142.28;100.00
4149;BME280;2088;51.032;7.082;2022-07-21T11:42:02;49155.41;;;-142.28;100.00
4149;BME280;2088;51.032;7.082;2022-07-21T11:44:30;49203.81;;;-142.28;100.00
4149;BME280;2088;51.032;7.082;2022-07-21T11:46:58;49283.16;;;-142.28;100.00
4149;BME280;2088;51.032;7.082;2022-07-21T11:49:25;49376.09;;;-142.28;100.00
4149;BME280;2088;51.032;7.082;2022-07-21T11:51:53;49387.72;;;-142.28;100.00
4149;BME280;2088;51.032;7.082;2022-07-21T11:54:29;49507.75;;;-142.28;100.00
4149;BME280;2088;51.032;7.082;2022-07-21T11:56:57;49571.63;;;-142.28;100.00
4149;BME280;2088;51.032;7.082;2022-07-21T11:59:24;49680.03;;;-142.28;100.00
4149;BME280;2088;51.032;7.082;2022-07-21T12:01:55;49802.03;;;-142.28;100.00
4149;BME280;2088;51.032;7.082;2022-07-21T12:04:30;49906.56;;;-142.28;100.00
4149;BME280;2088;51.032;7.082;2022-07-21T12:06:57;50047.94;;;-142.28;100.00
4149;BME280;2088;51.032;7.082;2022-07-21T12:09:24;50185.41;;;-142.28;100.00
4149;BME280;2088;51.032;7.082;2022-07-21T12:11:51;50359.69;;;-142.28;100.00
4149;BME280;2088;51.032;7.082;2022-07-21T12:14:18;50584.31;;;-142.28;100.00
4149;BME280;2088;51.032;7.082;2022-07-21T12:16:49;50706.34;;;-142.28;100.00
4149;BME280;2088;51.032;7.082;2022-07-21T12:19:17;50857.41;;;-142.28;100.00
4149;BME280;2088;51.032;7.082;2022-07-21T12:21:45;50940.69;;;-142.28;100.00
4149;BME280;2088;51.032;7.082;2022-07-21T12:24:12;51289.31;;;-142.28;100.00
4149;BME280;2088;51.032;7.082;2022-07-21T12:26:39;51440.41;;;-142.28;100.00
4149;BME280;2088;51.032;7.082;2022-07-21T12:29:05;51411.34;;;-142.28;100.00
4149;BME280;2088;51.032;7.082;2022-07-21T12:31:33;51502.41;;;-142.28;100.00
4149;BME280;2088;51.032;7.082;2022-07-21T12:34:11;51605.06;;;-142.28;100.00
4149;BME280;2088;51.032;7.082;2022-07-21T12:36:40;51831.72;;;-142.28;100.00
4149;BME280;2088;51.032;7.082;2022-07-21T12:39:18;51872.41;;;-142.28;100.00
4149;BME280;2088;51.032;7.082;2022-07-21T12:42:03;52118.47;;;-142.28;100.00
4149;BME280;2088;51.032;7.082;2022-07-21T12:44:29;52360.66;;;-142.28;100.00
4149;BME280;2088;51.032;7.082;2022-07-21T12:46:56;52525.38;;;-142.28;100.00
4149;BME280;2088;51.032;7.082;2022-07-21T12:49:22;52507.91;;;-142.28;100.00
4149;BME280;2088;51.032;7.082;2022-07-21T12:51:56;52606.75;;;-142.28;100.00
4149;BME280;2088;51.032;7.082;2022-07-21T12:54:23;52736.59;;;-142.28;100.00
4149;BME280;2088;51.032;7.082;2022-07-21T12:56:49;52843.16;;;-142.28;100.00
4149;BME280;2088;51.032;7.082;2022-07-21T12:59:16;52864.47;;;-142.28;100.00
4149;BME280;2088;51.032;7.082;2022-07-21T13:01:42;52812.16;;;-142.28;100.00